sensor_id;sensor_type;location;lat;lon;timestamp;temperature;humidity
774;DHT22;370;48.810;9.150;2022-08-19T00:01:26;22.20;6.20
774;DHT22;370;48.810;9.150;2022-08-19T00:03:54;22.20;6.50
774;DHT22;370;48.810;9.150;2022-08-19T00:06:21;22.20;6.60
774;DHT22;370;48.810;9.150;2022-08-19T00:08:48;22.10;6.80
774;DHT22;370;48.810;9.150;2022-08-19T00:11:17;22.00;7.10
774;DHT22;370;48.810;9.150;2022-08-19T00:13:45;22.00;7.30
774;DHT22;370;48.810;9.150;2022-08-19T00:16:13;22.00;7.40
774;DHT22;370;48.810;9.150;2022-08-19T00:18:40;22.00;7.30
774;DHT22;370;48.810;9.150;2022-08-19T00:21:07;22.00;7.10
774;DHT22;370;48.810;9.150;2022-08-19T00:23:35;22.00;7.30
774;DHT22;370;48.810;9.150;2022-08-19T00:29:25;22.00;7.40
774;DHT22;370;48.810;9.150;2022-08-19T00:31:52;22.00;7.30
774;DHT22;370;48.810;9.150;2022-08-19T00:34:21;22.00;7.10
774;DHT22;370;48.810;9.150;2022-08-19T00:36:48;22.00;7.10
774;DHT22;370;48.810;9.150;2022-08-19T00:39:16;22.00;7.20
774;DHT22;370;48.810;9.150;2022-08-19T00:41:43;22.00;7.30
774;DHT22;370;48.810;9.150;2022-08-19T00:44:16;22.00;7.20
774;DHT22;370;48.810;9.150;2022-08-19T00:46:49;22.00;7.40
774;DHT22;370;48.810;9.150;2022-08-19T00:49:17;22.00;7.30
774;DHT22;370;48.810;9.150;2022-08-19T00:51:50;21.90;7.30
774;DHT22;370;48.810;9.150;2022-08-19T00:54:19;21.90;7.40
774;DHT22;370;48.810;9.150;2022-08-19T00:56:46;21.90;7.50
774;DHT22;370;48.810;9.150;2022-08-19T00:59:14;21.90;7.40
774;DHT22;370;48.810;9.150;2022-08-19T01:01:42;21.90;7.50
774;DHT22;370;48.810;9.150;2022-08-19T01:04:11;22.00;7.40
774;DHT22;370;48.810;9.150;2022-08-19T01:06:39;22.00;7.40
774;DHT22;370;48.810;9.150;2022-08-19T01:09:08;22.00;7.40
774;DHT22;370;48.810;9.150;2022-08-19T01:11:39;22.10;7.40
774;DHT22;370;48.810;9.150;2022-08-19T01:14:07;22.10;7.50
774;DHT22;370;48.810;9.150;2022-08-19T01:16:35;22.10;7.30
774;DHT22;370;48.810;9.150;2022-08-19T01:19:03;22.10;7.10
774;DHT22;370;48.810;9.150;2022-08-19T01:24:53;22.20;6.90
774;DHT22;370;48.810;9.150;2022-08-19T01:27:20;22.20;6.90
774;DHT22;370;48.810;9.150;2022-08-19T01:29:47;22.10;7.30
774;DHT22;370;48.810;9.150;2022-08-19T01:32:15;22.10;7.20
774;DHT22;370;48.810;9.150;2022-08-19T01:34:43;22.00;7.60
774;DHT22;370;48.810;9.150;2022-08-19T01:37:14;22.10;7.50
774;DHT22;370;48.810;9.150;2022-08-19T01:39:41;22.10;7.40
774;DHT22;370;48.810;9.150;2022-08-19T01:42:10;22.00;7.60
774;DHT22;370;48.810;9.150;2022-08-19T01:44:38;22.00;7.50
774;DHT22;370;48.810;9.150;2022-08-19T01:47:06;22.00;7.80
774;DHT22;370;48.810;9.150;2022-08-19T01:49:35;22.00;7.80
774;DHT22;370;48.810;9.150;2022-08-19T01:52:03;22.00;8.00
774;DHT22;370;48.810;9.150;2022-08-19T01:54:30;22.00;7.90
774;DHT22;370;48.810;9.150;2022-08-19T01:57:01;22.10;7.80
774;DHT22;370;48.810;9.150;2022-08-19T01:59:31;22.10;7.80
774;DHT22;370;48.810;9.150;2022-08-19T02:01:58;22.10;7.90
774;DHT22;370;48.810;9.150;2022-08-19T02:04:25;22.00;8.00
774;DHT22;370;48.810;9.150;2022-08-19T02:06:52;22.00;8.20
774;DHT22;370;48.810;9.150;2022-08-19T02:09:19;22.00;8.40
774;DHT22;370;48.810;9.150;2022-08-19T02:11:45;22.00;8.40
774;DHT22;370;48.810;9.150;2022-08-19T02:14:12;22.00;8.40
774;DHT22;370;48.810;9.150;2022-08-19T02:16:43;22.00;8.50
774;DHT22;370;48.810;9.150;2022-08-19T02:19:09;22.00;8.70
774;DHT22;370;48.810;9.150;2022-08-19T02:21:36;22.00;8.70
774;DHT22;370;48.810;9.150;2022-08-19T02:24:04;21.90;9.10
774;DHT22;370;48.810;9.150;2022-08-19T02:26:31;21.70;9.60
774;DHT22;370;48.810;9.150;2022-08-19T02:28:58;21.80;9.70
774;DHT22;370;48.810;9.150;2022-08-19T02:31:26;21.70;9.70
774;DHT22;370;48.810;9.150;2022-08-19T02:33:54;21.70;10.00
774;DHT22;370;48.810;9.150;2022-08-19T02:36:22;21.60;10.30
774;DHT22;370;48.810;9.150;2022-08-19T02:38:49;21.70;10.40
774;DHT22;370;48.810;9.150;2022-08-19T02:41:17;21.70;10.50
774;DHT22;370;48.810;9.150;2022-08-19T02:43:44;21.60;10.50
774;DHT22;370;48.810;9.150;2022-08-19T02:46:13;21.50;11.20
774;DHT22;370;48.810;9.150;2022-08-19T02:48:41;21.50;11.10
774;DHT22;370;48.810;9.150;2022-08-19T02:51:16;21.50;11.40
774;DHT22;370;48.810;9.150;2022-08-19T02:53:43;21.50;11.40
774;DHT22;370;48.810;9.150;2022-08-19T02:56:09;21.40;11.90
774;DHT22;370;48.810;9.150;2022-08-19T02:58:36;21.30;12.30
774;DHT22;370;48.810;9.150;2022-08-19T03:01:03;21.20;12.60
774;DHT22;370;48.810;9.150;2022-08-19T03:03:30;21.20;12.60
774;DHT22;370;48.810;9.150;2022-08-19T03:06:10;21.20;12.60
774;DHT22;370;48.810;9.150;2022-08-19T03:08:39;21.10;13.20
774;DHT22;370;48.810;9.150;2022-08-19T03:11:10;21.10;13.60
774;DHT22;370;48.810;9.150;2022-08-19T03:13:38;21.00;14.10
774;DHT22;370;48.810;9.150;2022-08-19T03:16:05;21.00;14.50
774;DHT22;370;48.810;9.150;2022-08-19T03:18:32;21.00;14.50
774;DHT22;370;48.810;9.150;2022-08-19T03:20:58;21.00;14.70
774;DHT22;370;48.810;9.150;2022-08-19T03:23:27;21.00;15.50
774;DHT22;370;48.810;9.150;2022-08-19T03:25:54;21.10;16.80
774;DHT22;370;48.810;9.150;2022-08-19T03:28:21;21.10;16.00
774;DHT22;370;48.810;9.150;2022-08-19T03:30:58;21.10;16.00
774;DHT22;370;48.810;9.150;2022-08-19T03:33:25;21.00;16.30
774;DHT22;370;48.810;9.150;2022-08-19T03:36:04;21.00;16.40
774;DHT22;370;48.810;9.150;2022-08-19T03:38:34;21.10;17.20
774;DHT22;370;48.810;9.150;2022-08-19T03:41:06;21.10;16.50
774;DHT22;370;48.810;9.150;2022-08-19T03:43:35;21.00;15.50
774;DHT22;370;48.810;9.150;2022-08-19T03:46:04;21.00;16.30
774;DHT22;370;48.810;9.150;2022-08-19T03:48:32;21.00;16.10
774;DHT22;370;48.810;9.150;2022-08-19T03:50:59;21.00;15.60
774;DHT22;370;48.810;9.150;2022-08-19T03:53:26;20.90;15.90
774;DHT22;370;48.810;9.150;2022-08-19T03:55:55;20.90;16.00
774;DHT22;370;48.810;9.150;2022-08-19T03:58:23;20.90;15.70
774;DHT22;370;48.810;9.150;2022-08-19T04:00:50;20.90;15.50
774;DHT22;370;48.810;9.150;2022-08-19T04:03:16;21.00;15.60
774;DHT22;370;48.810;9.150;2022-08-19T04:05:45;21.00;14.90
774;DHT22;370;48.810;9.150;2022-08-19T04:08:12;20.90;15.40
774;DHT22;370;48.810;9.150;2022-08-19T04:10:44;20.90;15.20
774;DHT22;370;48.810;9.150;2022-08-19T04:13:12;20.90;15.20
774;DHT22;370;48.810;9.150;2022-08-19T04:15:40;20.90;15.20
774;DHT22;370;48.810;9.150;2022-08-19T04:18:07;20.90;15.20
774;DHT22;370;48.810;9.150;2022-08-19T04:20:39;20.90;15.00
774;DHT22;370;48.810;9.150;2022-08-19T04:23:06;20.90;14.60
774;DHT22;370;48.810;9.150;2022-08-19T04:25:36;21.00;14.10
774;DHT22;370;48.810;9.150;2022-08-19T04:28:04;20.90;14.40
774;DHT22;370;48.810;9.150;2022-08-19T04:30:37;20.90;14.60
774;DHT22;370;48.810;9.150;2022-08-19T04:33:04;21.00;14.40
774;DHT22;370;48.810;9.150;2022-08-19T04:35:35;21.00;14.20
774;DHT22;370;48.810;9.150;2022-08-19T04:38:03;21.10;13.80
774;DHT22;370;48.810;9.150;2022-08-19T04:40:30;21.10;13.80
774;DHT22;370;48.810;9.150;2022-08-19T04:43:14;21.10;13.50
774;DHT22;370;48.810;9.150;2022-08-19T04:45:42;21.00;13.90
774;DHT22;370;48.810;9.150;2022-08-19T04:48:10;21.00;14.10
774;DHT22;370;48.810;9.150;2022-08-19T04:50:40;21.00;14.40
774;DHT22;370;48.810;9.150;2022-08-19T04:53:08;21.00;14.20
774;DHT22;370;48.810;9.150;2022-08-19T04:55:37;20.90;14.30
774;DHT22;370;48.810;9.150;2022-08-19T04:58:04;20.90;14.60
774;DHT22;370;48.810;9.150;2022-08-19T05:00:32;20.90;14.80
774;DHT22;370;48.810;9.150;2022-08-19T05:03:00;20.80;15.10
774;DHT22;370;48.810;9.150;2022-08-19T05:05:27;20.90;15.00
774;DHT22;370;48.810;9.150;2022-08-19T05:07:54;20.90;14.90
774;DHT22;370;48.810;9.150;2022-08-19T05:10:21;20.80;15.10
774;DHT22;370;48.810;9.150;2022-08-19T05:12:48;20.90;15.30
774;DHT22;370;48.810;9.150;2022-08-19T05:15:14;21.00;15.10
774;DHT22;370;48.810;9.150;2022-08-19T05:17:41;21.00;14.70
774;DHT22;370;48.810;9.150;2022-08-19T05:20:29;21.00;14.90
774;DHT22;370;48.810;9.150;2022-08-19T05:23:14;21.10;14.50
774;DHT22;370;48.810;9.150;2022-08-19T05:25:42;21.10;14.60
774;DHT22;370;48.810;9.150;2022-08-19T05:28:09;21.10;14.80
774;DHT22;370;48.810;9.150;2022-08-19T05:30:36;21.10;15.10
774;DHT22;370;48.810;9.150;2022-08-19T05:33:03;21.10;14.90
774;DHT22;370;48.810;9.150;2022-08-19T05:35:31;21.10;14.90
774;DHT22;370;48.810;9.150;2022-08-19T05:37:58;21.10;15.10
774;DHT22;370;48.810;9.150;2022-08-19T05:40:24;21.20;14.70
774;DHT22;370;48.810;9.150;2022-08-19T05:42:51;21.30;14.20
774;DHT22;370;48.810;9.150;2022-08-19T05:45:18;21.30;14.00
774;DHT22;370;48.810;9.150;2022-08-19T05:47:46;21.30;13.50
774;DHT22;370;48.810;9.150;2022-08-19T05:50:13;21.30;13.70
774;DHT22;370;48.810;9.150;2022-08-19T05:52:41;21.20;14.00
774;DHT22;370;48.810;9.150;2022-08-19T05:55:08;21.30;13.60
774;DHT22;370;48.810;9.150;2022-08-19T05:57:35;21.30;13.80
774;DHT22;370;48.810;9.150;2022-08-19T06:00:04;21.30;13.40
774;DHT22;370;48.810;9.150;2022-08-19T06:02:34;21.40;12.80
774;DHT22;370;48.810;9.150;2022-08-19T06:05:19;21.40;12.80
774;DHT22;370;48.810;9.150;2022-08-19T06:07:47;21.40;12.80
774;DHT22;370;48.810;9.150;2022-08-19T06:10:14;21.30;12.80
774;DHT22;370;48.810;9.150;2022-08-19T06:12:41;21.30;13.40
774;DHT22;370;48.810;9.150;2022-08-19T06:15:10;21.20;13.80
774;DHT22;370;48.810;9.150;2022-08-19T06:17:38;21.10;14.20
774;DHT22;370;48.810;9.150;2022-08-19T06:20:09;21.20;14.20
774;DHT22;370;48.810;9.150;2022-08-19T06:22:39;21.30;13.70
774;DHT22;370;48.810;9.150;2022-08-19T06:25:08;21.30;13.70
774;DHT22;370;48.810;9.150;2022-08-19T06:27:35;21.30;13.60
774;DHT22;370;48.810;9.150;2022-08-19T06:30:03;21.40;13.20
774;DHT22;370;48.810;9.150;2022-08-19T06:32:29;21.40;13.10
774;DHT22;370;48.810;9.150;2022-08-19T06:34:56;21.40;13.10
774;DHT22;370;48.810;9.150;2022-08-19T06:37:24;21.40;12.90
774;DHT22;370;48.810;9.150;2022-08-19T06:39:51;21.50;13.00
774;DHT22;370;48.810;9.150;2022-08-19T06:42:19;21.50;12.90
774;DHT22;370;48.810;9.150;2022-08-19T06:44:48;21.60;13.50
774;DHT22;370;48.810;9.150;2022-08-19T06:47:17;21.50;14.70
774;DHT22;370;48.810;9.150;2022-08-19T06:49:44;21.50;15.40
774;DHT22;370;48.810;9.150;2022-08-19T06:52:11;21.50;15.30
774;DHT22;370;48.810;9.150;2022-08-19T06:54:39;21.50;15.40
774;DHT22;370;48.810;9.150;2022-08-19T06:57:06;21.50;16.20
774;DHT22;370;48.810;9.150;2022-08-19T06:59:36;21.40;17.10
774;DHT22;370;48.810;9.150;2022-08-19T07:02:04;21.40;17.20
774;DHT22;370;48.810;9.150;2022-08-19T07:04:32;21.40;17.40
774;DHT22;370;48.810;9.150;2022-08-19T07:07:02;21.50;18.90
774;DHT22;370;48.810;9.150;2022-08-19T07:09:31;21.40;17.00
774;DHT22;370;48.810;9.150;2022-08-19T07:11:58;21.50;16.40
774;DHT22;370;48.810;9.150;2022-08-19T07:14:27;21.50;16.10
774;DHT22;370;48.810;9.150;2022-08-19T07:16:56;21.40;15.80
774;DHT22;370;48.810;9.150;2022-08-19T07:19:25;21.40;16.20
774;DHT22;370;48.810;9.150;2022-08-19T07:21:53;21.30;16.50
774;DHT22;370;48.810;9.150;2022-08-19T07:24:21;21.40;14.90
774;DHT22;370;48.810;9.150;2022-08-19T07:26:50;21.30;15.70
774;DHT22;370;48.810;9.150;2022-08-19T07:29:18;21.30;16.00
774;DHT22;370;48.810;9.150;2022-08-19T07:31:48;21.30;14.40
774;DHT22;370;48.810;9.150;2022-08-19T07:34:17;21.30;15.50
774;DHT22;370;48.810;9.150;2022-08-19T07:36:44;21.40;14.80
774;DHT22;370;48.810;9.150;2022-08-19T07:39:14;21.30;14.40
774;DHT22;370;48.810;9.150;2022-08-19T07:41:41;21.30;15.20
774;DHT22;370;48.810;9.150;2022-08-19T07:44:09;21.30;15.00
774;DHT22;370;48.810;9.150;2022-08-19T07:46:37;21.20;14.80
774;DHT22;370;48.810;9.150;2022-08-19T07:49:06;21.10;15.00
774;DHT22;370;48.810;9.150;2022-08-19T07:51:35;21.10;15.70
774;DHT22;370;48.810;9.150;2022-08-19T07:54:02;21.20;15.30
774;DHT22;370;48.810;9.150;2022-08-19T07:56:29;21.20;15.30
774;DHT22;370;48.810;9.150;2022-08-19T07:58:56;21.20;14.90
774;DHT22;370;48.810;9.150;2022-08-19T08:01:25;21.30;15.00
774;DHT22;370;48.810;9.150;2022-08-19T08:03:55;21.30;14.30
774;DHT22;370;48.810;9.150;2022-08-19T08:06:40;21.30;14.70
774;DHT22;370;48.810;9.150;2022-08-19T08:09:27;21.30;14.40
774;DHT22;370;48.810;9.150;2022-08-19T08:11:57;21.40;14.40
774;DHT22;370;48.810;9.150;2022-08-19T08:14:27;21.40;13.70
774;DHT22;370;48.810;9.150;2022-08-19T08:16:55;21.20;13.80
774;DHT22;370;48.810;9.150;2022-08-19T08:19:24;21.20;14.90
774;DHT22;370;48.810;9.150;2022-08-19T08:21:54;21.20;14.20
774;DHT22;370;48.810;9.150;2022-08-19T08:24:21;21.30;14.30
774;DHT22;370;48.810;9.150;2022-08-19T08:26:48;21.30;14.20
774;DHT22;370;48.810;9.150;2022-08-19T08:29:14;21.30;13.90
774;DHT22;370;48.810;9.150;2022-08-19T08:31:43;21.30;14.20
774;DHT22;370;48.810;9.150;2022-08-19T08:34:12;21.40;14.00
774;DHT22;370;48.810;9.150;2022-08-19T08:36:41;21.40;13.40
774;DHT22;370;48.810;9.150;2022-08-19T08:39:12;21.40;13.70
774;DHT22;370;48.810;9.150;2022-08-19T08:41:44;21.50;13.20
774;DHT22;370;48.810;9.150;2022-08-19T08:44:16;21.60;13.90
774;DHT22;370;48.810;9.150;2022-08-19T08:46:47;21.70;16.70
774;DHT22;370;48.810;9.150;2022-08-19T08:49:27;21.70;18.20
774;DHT22;370;48.810;9.150;2022-08-19T08:52:00;21.80;17.50
774;DHT22;370;48.810;9.150;2022-08-19T08:54:34;21.80;16.40
774;DHT22;370;48.810;9.150;2022-08-19T08:57:04;21.80;17.30
774;DHT22;370;48.810;9.150;2022-08-19T08:59:35;21.70;16.00
774;DHT22;370;48.810;9.150;2022-08-19T09:02:03;21.80;16.20
774;DHT22;370;48.810;9.150;2022-08-19T09:04:30;21.90;16.30
774;DHT22;370;48.810;9.150;2022-08-19T09:07:18;22.00;16.30
774;DHT22;370;48.810;9.150;2022-08-19T09:09:51;22.10;14.40
774;DHT22;370;48.810;9.150;2022-08-19T09:12:23;22.00;15.30
774;DHT22;370;48.810;9.150;2022-08-19T09:14:54;22.10;14.90
774;DHT22;370;48.810;9.150;2022-08-19T09:17:24;22.10;14.50
774;DHT22;370;48.810;9.150;2022-08-19T09:19:56;22.20;13.30
774;DHT22;370;48.810;9.150;2022-08-19T09:22:23;22.30;13.40
774;DHT22;370;48.810;9.150;2022-08-19T09:24:54;22.40;13.50
774;DHT22;370;48.810;9.150;2022-08-19T09:27:22;22.50;12.20
774;DHT22;370;48.810;9.150;2022-08-19T09:29:50;22.60;12.70
774;DHT22;370;48.810;9.150;2022-08-19T09:32:17;22.60;12.80
774;DHT22;370;48.810;9.150;2022-08-19T09:34:44;22.80;11.90
774;DHT22;370;48.810;9.150;2022-08-19T09:37:13;22.90;11.50
774;DHT22;370;48.810;9.150;2022-08-19T09:39:40;23.00;10.50
774;DHT22;370;48.810;9.150;2022-08-19T09:42:09;23.20;11.20
774;DHT22;370;48.810;9.150;2022-08-19T09:44:38;23.20;8.90
774;DHT22;370;48.810;9.150;2022-08-19T09:47:04;23.40;9.20
774;DHT22;370;48.810;9.150;2022-08-19T09:49:32;23.40;8.00
774;DHT22;370;48.810;9.150;2022-08-19T09:51:59;23.30;9.00
774;DHT22;370;48.810;9.150;2022-08-19T09:54:26;23.40;8.50
774;DHT22;370;48.810;9.150;2022-08-19T09:56:55;23.40;8.00
774;DHT22;370;48.810;9.150;2022-08-19T09:59:23;23.30;8.40
774;DHT22;370;48.810;9.150;2022-08-19T10:01:51;23.40;7.80
774;DHT22;370;48.810;9.150;2022-08-19T10:04:18;23.20;8.40
774;DHT22;370;48.810;9.150;2022-08-19T10:06:45;23.20;8.30
774;DHT22;370;48.810;9.150;2022-08-19T10:09:14;23.20;8.90
774;DHT22;370;48.810;9.150;2022-08-19T10:11:43;23.20;8.70
774;DHT22;370;48.810;9.150;2022-08-19T10:14:11;23.10;8.70
774;DHT22;370;48.810;9.150;2022-08-19T10:16:39;23.20;8.40
774;DHT22;370;48.810;9.150;2022-08-19T10:19:07;23.30;8.10
774;DHT22;370;48.810;9.150;2022-08-19T10:21:35;23.40;8.10
774;DHT22;370;48.810;9.150;2022-08-19T10:24:04;23.40;7.00
774;DHT22;370;48.810;9.150;2022-08-19T10:26:40;23.40;7.70
774;DHT22;370;48.810;9.150;2022-08-19T10:29:10;23.50;7.30
774;DHT22;370;48.810;9.150;2022-08-19T10:31:39;23.60;6.90
774;DHT22;370;48.810;9.150;2022-08-19T10:34:06;23.60;6.60
774;DHT22;370;48.810;9.150;2022-08-19T10:36:36;23.60;7.10
774;DHT22;370;48.810;9.150;2022-08-19T10:39:07;23.70;6.10
774;DHT22;370;48.810;9.150;2022-08-19T10:41:36;23.80;5.60
774;DHT22;370;48.810;9.150;2022-08-19T10:44:05;23.70;5.30
774;DHT22;370;48.810;9.150;2022-08-19T10:46:36;23.80;5.30
774;DHT22;370;48.810;9.150;2022-08-19T10:49:05;23.70;5.30
774;DHT22;370;48.810;9.150;2022-08-19T10:51:32;23.80;5.30
774;DHT22;370;48.810;9.150;2022-08-19T10:54:17;23.90;4.70
774;DHT22;370;48.810;9.150;2022-08-19T10:56:44;24.00;4.00
774;DHT22;370;48.810;9.150;2022-08-19T10:59:18;24.00;3.90
774;DHT22;370;48.810;9.150;2022-08-19T11:01:46;24.00;3.70
774;DHT22;370;48.810;9.150;2022-08-19T11:04:15;24.00;3.50
774;DHT22;370;48.810;9.150;2022-08-19T11:06:43;24.00;3.70
774;DHT22;370;48.810;9.150;2022-08-19T11:09:13;24.00;3.20
774;DHT22;370;48.810;9.150;2022-08-19T11:11:40;24.20;3.10
774;DHT22;370;48.810;9.150;2022-08-19T11:14:08;24.30;2.10
774;DHT22;370;48.810;9.150;2022-08-19T11:16:36;24.40;2.00
774;DHT22;370;48.810;9.150;2022-08-19T11:19:06;24.70;1.80
774;DHT22;370;48.810;9.150;2022-08-19T11:21:36;24.90;1.10
774;DHT22;370;48.810;9.150;2022-08-19T11:24:09;25.10;1.00
774;DHT22;370;48.810;9.150;2022-08-19T11:26:36;25.10;1.00
774;DHT22;370;48.810;9.150;2022-08-19T11:29:05;25.30;1.00
774;DHT22;370;48.810;9.150;2022-08-19T11:31:37;25.50;1.00
774;DHT22;370;48.810;9.150;2022-08-19T11:34:06;25.70;1.00
774;DHT22;370;48.810;9.150;2022-08-19T11:36:37;25.80;1.00
774;DHT22;370;48.810;9.150;2022-08-19T11:39:06;25.80;1.00
774;DHT22;370;48.810;9.150;2022-08-19T11:41:33;25.90;1.00
774;DHT22;370;48.810;9.150;2022-08-19T11:44:00;26.10;1.00
774;DHT22;370;48.810;9.150;2022-08-19T11:46:28;26.30;1.00
774;DHT22;370;48.810;9.150;2022-08-19T11:48:56;26.40;1.00
774;DHT22;370;48.810;9.150;2022-08-19T11:51:23;26.50;1.00
774;DHT22;370;48.810;9.150;2022-08-19T11:53:52;26.60;1.00
774;DHT22;370;48.810;9.150;2022-08-19T11:56:21;26.50;1.00
774;DHT22;370;48.810;9.150;2022-08-19T11:58:48;26.50;1.00
774;DHT22;370;48.810;9.150;2022-08-19T12:01:18;26.60;1.00
774;DHT22;370;48.810;9.150;2022-08-19T12:03:46;26.50;1.00
774;DHT22;370;48.810;9.150;2022-08-19T12:06:15;26.50;1.00
774;DHT22;370;48.810;9.150;2022-08-19T12:08:43;26.60;1.00
774;DHT22;370;48.810;9.150;2022-08-19T12:11:12;26.50;1.00
774;DHT22;370;48.810;9.150;2022-08-19T12:13:40;26.60;1.00
774;DHT22;370;48.810;9.150;2022-08-19T12:16:13;26.60;1.00
774;DHT22;370;48.810;9.150;2022-08-19T12:18:42;26.70;1.00
774;DHT22;370;48.810;9.150;2022-08-19T12:21:12;26.80;1.00
774;DHT22;370;48.810;9.150;2022-08-19T12:23:39;26.80;1.00
774;DHT22;370;48.810;9.150;2022-08-19T12:26:06;26.80;1.00
774;DHT22;370;48.810;9.150;2022-08-19T12:28:34;26.60;1.00
774;DHT22;370;48.810;9.150;2022-08-19T12:31:01;26.70;1.00
774;DHT22;370;48.810;9.150;2022-08-19T12:33:28;26.60;1.00
774;DHT22;370;48.810;9.150;2022-08-19T12:35:55;26.50;1.00
774;DHT22;370;48.810;9.150;2022-08-19T12:38:26;26.50;1.00
774;DHT22;370;48.810;9.150;2022-08-19T12:40:52;26.50;1.00
774;DHT22;370;48.810;9.150;2022-08-19T12:43:19;26.30;1.00
774;DHT22;370;48.810;9.150;2022-08-19T12:45:49;26.30;1.00
774;DHT22;370;48.810;9.150;2022-08-19T12:48:16;26.30;1.00
774;DHT22;370;48.810;9.150;2022-08-19T12:50:44;26.40;1.00
774;DHT22;370;48.810;9.150;2022-08-19T12:53:12;26.50;1.00
774;DHT22;370;48.810;9.150;2022-08-19T12:55:39;26.60;1.00
774;DHT22;370;48.810;9.150;2022-08-19T12:58:06;26.80;1.00
774;DHT22;370;48.810;9.150;2022-08-19T13:00:33;27.10;1.00
774;DHT22;370;48.810;9.150;2022-08-19T13:03:01;27.20;1.00
774;DHT22;370;48.810;9.150;2022-08-19T13:05:30;27.30;1.00
774;DHT22;370;48.810;9.150;2022-08-19T13:07:58;27.30;1.00
774;DHT22;370;48.810;9.150;2022-08-19T13:10:27;27.40;1.00
774;DHT22;370;48.810;9.150;2022-08-19T13:12:54;27.40;1.00
774;DHT22;370;48.810;9.150;2022-08-19T13:15:22;27.30;1.00
774;DHT22;370;48.810;9.150;2022-08-19T13:17:51;27.20;1.00
774;DHT22;370;48.810;9.150;2022-08-19T13:20:20;27.10;1.00
774;DHT22;370;48.810;9.150;2022-08-19T13:22:48;26.70;1.00
774;DHT22;370;48.810;9.150;2022-08-19T13:25:16;26.30;1.00
774;DHT22;370;48.810;9.150;2022-08-19T13:27:45;26.10;1.00
774;DHT22;370;48.810;9.150;2022-08-19T13:30:13;25.90;1.00
774;DHT22;370;48.810;9.150;2022-08-19T13:32:58;25.90;1.00
774;DHT22;370;48.810;9.150;2022-08-19T13:35:40;26.00;1.00
774;DHT22;370;48.810;9.150;2022-08-19T13:38:07;26.00;1.00
774;DHT22;370;48.810;9.150;2022-08-19T13:40:34;26.00;1.00
774;DHT22;370;48.810;9.150;2022-08-19T13:43:03;25.30;2.70
774;DHT22;370;48.810;9.150;2022-08-19T13:45:33;25.20;4.30
774;DHT22;370;48.810;9.150;2022-08-19T13:48:01;25.20;4.80
774;DHT22;370;48.810;9.150;2022-08-19T13:50:33;25.20;6.20
774;DHT22;370;48.810;9.150;2022-08-19T13:53:01;25.10;6.20
774;DHT22;370;48.810;9.150;2022-08-19T13:55:29;25.10;10.00
774;DHT22;370;48.810;9.150;2022-08-19T13:57:58;24.90;11.60
774;DHT22;370;48.810;9.150;2022-08-19T14:00:30;24.50;14.40
774;DHT22;370;48.810;9.150;2022-08-19T14:02:57;24.20;16.20
774;DHT22;370;48.810;9.150;2022-08-19T14:05:25;24.20;17.70
774;DHT22;370;48.810;9.150;2022-08-19T14:07:52;24.10;18.20
774;DHT22;370;48.810;9.150;2022-08-19T14:10:21;23.60;19.40
774;DHT22;370;48.810;9.150;2022-08-19T14:12:48;23.60;21.10
774;DHT22;370;48.810;9.150;2022-08-19T14:15:15;23.80;23.20
774;DHT22;370;48.810;9.150;2022-08-19T14:17:44;24.00;23.30
774;DHT22;370;48.810;9.150;2022-08-19T14:20:13;24.10;21.30
774;DHT22;370;48.810;9.150;2022-08-19T14:22:41;24.00;19.40
774;DHT22;370;48.810;9.150;2022-08-19T14:25:12;24.00;19.60
774;DHT22;370;48.810;9.150;2022-08-19T14:27:41;24.00;17.20
774;DHT22;370;48.810;9.150;2022-08-19T14:30:10;23.80;16.50
774;DHT22;370;48.810;9.150;2022-08-19T14:32:37;23.70;16.90
774;DHT22;370;48.810;9.150;2022-08-19T14:35:05;23.70;16.30
774;DHT22;370;48.810;9.150;2022-08-19T14:37:33;23.70;16.10
774;DHT22;370;48.810;9.150;2022-08-19T14:39:59;23.70;16.00
774;DHT22;370;48.810;9.150;2022-08-19T14:42:26;23.80;14.40
774;DHT22;370;48.810;9.150;2022-08-19T14:44:57;23.90;14.50
774;DHT22;370;48.810;9.150;2022-08-19T14:47:24;24.00;13.20
774;DHT22;370;48.810;9.150;2022-08-19T14:49:50;24.00;14.10
774;DHT22;370;48.810;9.150;2022-08-19T14:52:17;24.10;13.40
774;DHT22;370;48.810;9.150;2022-08-19T14:54:44;24.10;12.30
774;DHT22;370;48.810;9.150;2022-08-19T14:57:12;24.20;12.70
774;DHT22;370;48.810;9.150;2022-08-19T14:59:40;24.10;12.70
774;DHT22;370;48.810;9.150;2022-08-19T15:02:09;24.20;13.30
774;DHT22;370;48.810;9.150;2022-08-19T15:04:36;24.30;11.30
774;DHT22;370;48.810;9.150;2022-08-19T15:07:03;24.20;11.20
774;DHT22;370;48.810;9.150;2022-08-19T15:09:30;24.20;11.10
774;DHT22;370;48.810;9.150;2022-08-19T15:11:57;24.20;11.00
774;DHT22;370;48.810;9.150;2022-08-19T15:14:25;24.30;11.10
774;DHT22;370;48.810;9.150;2022-08-19T15:16:52;24.60;10.50
774;DHT22;370;48.810;9.150;2022-08-19T15:19:20;24.60;10.20
774;DHT22;370;48.810;9.150;2022-08-19T15:21:47;24.90;9.60
774;DHT22;370;48.810;9.150;2022-08-19T15:24:14;25.00;7.80
774;DHT22;370;48.810;9.150;2022-08-19T15:26:42;24.90;7.40
774;DHT22;370;48.810;9.150;2022-08-19T15:29:09;24.90;6.70
774;DHT22;370;48.810;9.150;2022-08-19T15:31:38;25.20;6.20
774;DHT22;370;48.810;9.150;2022-08-19T15:34:05;25.20;6.20
774;DHT22;370;48.810;9.150;2022-08-19T15:36:33;25.30;6.30
774;DHT22;370;48.810;9.150;2022-08-19T15:39:01;25.50;4.90
774;DHT22;370;48.810;9.150;2022-08-19T15:41:29;25.50;4.50
774;DHT22;370;48.810;9.150;2022-08-19T15:43:57;25.50;4.20
774;DHT22;370;48.810;9.150;2022-08-19T15:46:27;25.50;4.80
774;DHT22;370;48.810;9.150;2022-08-19T15:48:54;25.70;4.50
774;DHT22;370;48.810;9.150;2022-08-19T15:51:22;25.70;4.40
774;DHT22;370;48.810;9.150;2022-08-19T15:53:51;25.80;3.70
774;DHT22;370;48.810;9.150;2022-08-19T15:56:18;26.00;4.40
774;DHT22;370;48.810;9.150;2022-08-19T15:58:44;26.20;3.60
774;DHT22;370;48.810;9.150;2022-08-19T16:01:29;26.40;2.90
774;DHT22;370;48.810;9.150;2022-08-19T16:04:14;26.60;3.40
774;DHT22;370;48.810;9.150;2022-08-19T16:06:59;26.80;1.00
774;DHT22;370;48.810;9.150;2022-08-19T16:12:50;27.10;1.00
774;DHT22;370;48.810;9.150;2022-08-19T16:15:16;27.20;1.00
774;DHT22;370;48.810;9.150;2022-08-19T16:17:45;27.30;1.00
774;DHT22;370;48.810;9.150;2022-08-19T16:20:12;27.30;1.00
774;DHT22;370;48.810;9.150;2022-08-19T16:22:41;27.20;1.00
774;DHT22;370;48.810;9.150;2022-08-19T16:25:09;27.10;1.20
774;DHT22;370;48.810;9.150;2022-08-19T16:27:36;26.60;2.80
774;DHT22;370;48.810;9.150;2022-08-19T16:30:05;26.50;3.20
774;DHT22;370;48.810;9.150;2022-08-19T16:32:32;26.40;3.80
774;DHT22;370;48.810;9.150;2022-08-19T16:35:02;26.30;4.00
774;DHT22;370;48.810;9.150;2022-08-19T16:37:29;26.20;4.20
774;DHT22;370;48.810;9.150;2022-08-19T16:39:57;26.10;4.60
774;DHT22;370;48.810;9.150;2022-08-19T16:42:23;25.80;5.50
774;DHT22;370;48.810;9.150;2022-08-19T16:44:50;25.30;6.30
774;DHT22;370;48.810;9.150;2022-08-19T16:47:18;25.40;6.40
774;DHT22;370;48.810;9.150;2022-08-19T16:49:45;25.30;7.50
774;DHT22;370;48.810;9.150;2022-08-19T16:52:11;24.90;8.80
774;DHT22;370;48.810;9.150;2022-08-19T16:54:38;24.90;9.40
774;DHT22;370;48.810;9.150;2022-08-19T16:57:05;24.90;9.50
774;DHT22;370;48.810;9.150;2022-08-19T16:59:32;24.80;9.90
774;DHT22;370;48.810;9.150;2022-08-19T17:01:59;24.80;9.80